Time;durP1;ratioP1;P1;durP2;ratioP2;P2;SDS_P1;SDS_P2;PMS_P1;PMS_P2;Temp;Humidity;BMP_temperature;BMP_pressure;BME280_temperature;BME280_humidity;BME280_pressure;Samples;Min_cycle;Max_cycle;Signal;HPM_P1;HPM_P2
2023/04/13 00:00:21;;;;;;;7.95;3.90;;;20.00;67.50;;;;;;5032806;28;20529;-69
2023/04/13 00:02:52;;;;;;;5.97;3.47;;;20.00;67.80;;;;;;5032992;28;20026;-69
2023/04/13 00:05:18;;;;;;;8.20;3.90;;;20.10;67.90;;;;;;5032986;28;20022;-69
2023/04/13 00:07:44;;;;;;;6.50;3.30;;;20.00;67.80;;;;;;5031723;28;20545;-69
2023/04/13 00:10:10;;;;;;;7.20;3.28;;;20.10;67.80;;;;;;5031551;28;20396;-70
2023/04/13 00:12:36;;;;;;;6.22;2.92;;;20.10;67.90;;;;;;5015340;28;20025;-70
2023/04/13 00:15:03;;;;;;;6.47;3.05;;;20.10;67.90;;;;;;5015380;28;20021;-69
2023/04/13 00:17:28;;;;;;;6.07;2.80;;;20.10;68.00;;;;;;5015235;28;20028;-70
2023/04/13 00:19:56;;;;;;;7.45;3.22;;;20.10;68.00;;;;;;5032559;28;20037;-70
2023/04/13 00:22:23;;;;;;;7.68;3.88;;;20.20;68.00;;;;;;5032740;28;20018;-69
2023/04/13 00:24:49;;;;;;;5.32;2.97;;;20.20;68.10;;;;;;5031253;28;20108;-70
2023/04/13 00:27:14;;;;;;;8.85;3.28;;;20.20;68.10;;;;;;5032418;28;20101;-69
2023/04/13 00:29:40;;;;;;;6.75;3.30;;;20.20;68.00;;;;;;5032785;28;20463;-69
2023/04/13 00:32:06;;;;;;;7.00;3.42;;;20.20;68.00;;;;;;5032563;28;20100;-70
2023/04/13 00:34:31;;;;;;;5.95;2.88;;;20.20;68.00;;;;;;5032515;28;20060;-69
2023/04/13 00:36:57;;;;;;;11.18;3.20;;;20.20;68.00;;;;;;5014756;28;20075;-69
2023/04/13 00:39:23;;;;;;;7.00;3.30;;;20.30;68.00;;;;;;5030755;28;20057;-69
2023/04/13 00:41:52;;;;;;;5.13;2.75;;;20.30;68.00;;;;;;5031324;28;20060;-69
2023/04/13 00:44:18;;;;;;;6.30;2.80;;;20.30;68.00;;;;;;5031448;28;20460;-69
2023/04/13 00:46:47;;;;;;;7.13;2.95;;;20.30;67.60;;;;;;5015247;28;20442;-70
2023/04/13 00:49:14;;;;;;;8.25;3.22;;;20.20;67.10;;;;;;5015115;28;20087;-69
2023/04/13 00:51:40;;;;;;;9.40;3.35;;;20.20;67.20;;;;;;5014528;28;20057;-70
2023/04/13 00:54:06;;;;;;;5.53;2.85;;;20.20;67.30;;;;;;5031782;28;20053;-70
2023/04/13 00:56:32;;;;;;;5.55;3.13;;;20.20;67.20;;;;;;5014791;28;20028;-70
2023/04/13 00:58:58;;;;;;;7.80;3.22;;;20.20;67.30;;;;;;5031035;28;20037;-70
2023/04/13 01:01:24;;;;;;;4.65;2.78;;;20.20;67.30;;;;;;5032116;28;20567;-70
2023/04/13 01:03:52;;;;;;;6.20;3.20;;;20.10;67.20;;;;;;5031008;28;20026;-69
2023/04/13 01:06:23;;;;;;;6.72;3.22;;;20.10;67.30;;;;;;5030999;28;20484;-70
2023/04/13 01:09:14;;;;;;;6.32;3.08;;;20.10;67.30;;;;;;5030738;28;20029;-69
2023/04/13 01:11:49;;;;;;;5.40;2.85;;;20.10;67.40;;;;;;5031118;28;20117;-69
2023/04/13 01:14:49;;;;;;;7.75;3.10;;;20.00;67.40;;;;;;5015285;28;20419;-70
2023/04/13 01:17:20;;;;;;;5.03;2.95;;;20.00;67.50;;;;;;5029842;28;20113;-70
2023/04/13 01:20:09;;;;;;;4.97;2.78;;;20.00;67.50;;;;;;5014955;28;20491;-70
2023/04/13 01:22:35;;;;;;;7.32;2.90;;;19.90;67.60;;;;;;5031789;28;20041;-70
2023/04/13 01:25:21;;;;;;;4.40;2.70;;;19.90;67.60;;;;;;5014708;28;20056;-70
2023/04/13 01:27:54;;;;;;;4.40;2.72;;;19.80;67.60;;;;;;5032060;28;20045;-70
2023/04/13 01:30:23;;;;;;;4.60;2.63;;;19.90;67.70;;;;;;5014482;28;20029;-69
2023/04/13 01:32:50;;;;;;;5.90;2.47;;;19.80;67.70;;;;;;5030947;28;20100;-70
2023/04/13 01:35:17;;;;;;;5.95;2.90;;;19.80;67.80;;;;;;5014432;28;20033;-69
2023/04/13 01:37:43;;;;;;;6.20;2.60;;;19.70;67.90;;;;;;5030492;28;20109;-69
2023/04/13 01:40:12;;;;;;;5.57;3.13;;;19.70;68.00;;;;;;5014354;28;20116;-69
2023/04/13 01:42:38;;;;;;;6.05;2.97;;;19.70;68.00;;;;;;5014625;28;20098;-69
2023/04/13 01:45:09;;;;;;;6.22;2.90;;;19.70;68.10;;;;;;5030654;28;20613;-69
2023/04/13 01:47:34;;;;;;;5.90;2.72;;;19.60;68.10;;;;;;5014757;28;20025;-69
2023/04/13 01:50:04;;;;;;;5.13;2.50;;;19.60;68.10;;;;;;5014253;28;20117;-70
2023/04/13 01:52:30;;;;;;;6.15;2.45;;;19.60;68.20;;;;;;5031747;28;20480;-69
2023/04/13 01:54:56;;;;;;;5.68;2.60;;;19.60;68.40;;;;;;5017610;28;20052;-69
2023/04/13 01:57:22;;;;;;;4.38;2.40;;;19.50;68.30;;;;;;5017834;28;20032;-69
2023/04/13 01:59:47;;;;;;;5.00;2.75;;;19.50;68.40;;;;;;5033917;28;20033;-69
2023/04/13 02:02:15;;;;;;;5.25;2.60;;;19.50;69.60;;;;;;5035398;28;20025;-70
2023/04/13 02:04:41;;;;;;;6.65;2.63;;;19.40;68.60;;;;;;5034264;28;20104;-70
2023/04/13 02:07:07;;;;;;;4.03;2.35;;;19.40;68.70;;;;;;5034924;28;20025;-69
2023/04/13 02:09:34;;;;;;;4.10;2.50;;;19.40;68.70;;;;;;5034000;28;20025;-69
2023/04/13 02:11:59;;;;;;;4.82;2.63;;;19.40;68.70;;;;;;5035225;28;20029;-70
2023/04/13 02:14:26;;;;;;;7.22;2.70;;;19.30;68.80;;;;;;5033784;28;20403;-70
2023/04/13 02:16:51;;;;;;;6.50;2.45;;;19.30;68.80;;;;;;5017374;28;20025;-70
2023/04/13 02:19:17;;;;;;;5.85;2.78;;;19.30;68.70;;;;;;5034902;28;20148;-70
2023/04/13 02:21:42;;;;;;;3.50;2.45;;;19.30;68.80;;;;;;5033661;28;20091;-70
2023/04/13 02:24:08;;;;;;;4.65;2.58;;;19.20;68.80;;;;;;5033778;28;20021;-70
2023/04/13 02:26:36;;;;;;;6.25;3.15;;;19.20;68.90;;;;;;5033524;28;20446;-69
2023/04/13 02:29:02;;;;;;;4.57;2.38;;;19.20;69.00;;;;;;5033479;28;20029;-69
2023/04/13 02:31:30;;;;;;;5.75;2.50;;;19.20;69.00;;;;;;5033595;28;20084;-70
2023/04/13 02:33:56;;;;;;;4.82;2.80;;;19.20;69.00;;;;;;5034837;28;20029;-69
2023/04/13 02:36:23;;;;;;;4.10;2.38;;;19.10;69.10;;;;;;5033395;28;20372;-69
2023/04/13 02:38:49;;;;;;;8.50;2.40;;;19.10;69.10;;;;;;5034567;28;20033;-69
2023/04/13 02:41:15;;;;;;;3.67;2.40;;;19.00;69.20;;;;;;5016803;28;20029;-71
2023/04/13 02:43:41;;;;;;;4.43;2.42;;;19.00;69.20;;;;;;5034528;28;20063;-71
2023/04/13 02:46:07;;;;;;;6.57;2.53;;;19.00;69.30;;;;;;5016877;28;20033;-71
2023/04/13 02:48:33;;;;;;;4.60;2.45;;;19.00;69.40;;;;;;5033173;28;20105;-71
2023/04/13 02:50:58;;;;;;;5.40;2.20;;;19.00;69.50;;;;;;5033126;28;20089;-71
2023/04/13 02:53:24;;;;;;;4.68;2.35;;;18.90;69.50;;;;;;5032870;28;20450;-71
2023/04/13 02:55:52;;;;;;;5.20;2.40;;;18.90;69.60;;;;;;5034326;28;20024;-71
2023/04/13 02:58:19;;;;;;;5.38;2.45;;;18.90;69.60;;;;;;5034440;28;20025;-71
2023/04/13 03:00:44;;;;;;;4.47;2.55;;;18.90;69.50;;;;;;5032734;28;20022;-71
2023/04/13 03:03:10;;;;;;;5.15;2.70;;;18.80;69.50;;;;;;5034073;28;20033;-71
2023/04/13 03:05:36;;;;;;;4.40;2.40;;;18.80;69.60;;;;;;5032893;28;20028;-72
2023/04/13 03:08:04;;;;;;;8.25;2.45;;;18.80;69.70;;;;;;5032779;28;20577;-72
2023/04/13 03:10:30;;;;;;;5.03;2.47;;;18.80;69.70;;;;;;5032853;28;20029;-72
2023/04/13 03:12:55;;;;;;;4.63;2.60;;;18.70;69.60;;;;;;5034092;28;20108;-72
2023/04/13 03:15:21;;;;;;;5.03;2.30;;;18.70;69.70;;;;;;5032678;28;20104;-72
2023/04/13 03:17:47;;;;;;;6.32;2.30;;;18.70;69.80;;;;;;5033906;28;20513;-72
2023/04/13 03:20:15;;;;;;;4.40;2.50;;;18.60;69.70;;;;;;5033803;28;20029;-72
2023/04/13 03:22:42;;;;;;;3.92;2.55;;;18.70;70.00;;;;;;5032666;28;20108;-72
2023/04/13 03:25:08;;;;;;;4.90;2.40;;;18.60;69.90;;;;;;5033744;28;20395;-72
2023/04/13 03:27:35;;;;;;;5.35;2.53;;;18.60;69.90;;;;;;5032627;28;20013;-72
2023/04/13 03:30:01;;;;;;;4.30;2.22;;;18.60;70.00;;;;;;5033619;28;20021;-72
2023/04/13 03:32:27;;;;;;;3.45;2.10;;;18.50;70.00;;;;;;5015852;28;20021;-72
2023/04/13 03:34:52;;;;;;;4.75;2.15;;;18.50;70.00;;;;;;5032476;28;20033;-72
2023/04/13 03:37:18;;;;;;;5.47;2.47;;;18.50;70.00;;;;;;5032456;28;20068;-73
2023/04/13 03:39:44;;;;;;;3.60;2.13;;;18.50;70.10;;;;;;5033332;28;20025;-72
2023/04/13 03:42:10;;;;;;;3.97;2.10;;;18.50;70.10;;;;;;5032247;28;20021;-72
2023/04/13 03:44:35;;;;;;;3.58;2.00;;;18.50;70.20;;;;;;5032071;28;20021;-72
2023/04/13 03:47:01;;;;;;;4.15;2.25;;;18.50;70.20;;;;;;5033232;28;20606;-72
2023/04/13 03:49:27;;;;;;;3.50;2.30;;;18.40;70.20;;;;;;5032048;28;20031;-72
2023/04/13 03:51:52;;;;;;;3.47;2.22;;;18.40;70.30;;;;;;5032161;28;20025;-72
2023/04/13 03:54:18;;;;;;;4.80;2.13;;;18.30;70.30;;;;;;5033178;28;20049;-72
2023/04/13 03:56:44;;;;;;;3.75;2.25;;;18.40;70.40;;;;;;5032979;28;20384;-72
2023/04/13 03:59:10;;;;;;;4.65;2.08;;;18.40;70.40;;;;;;5031874;28;20049;-72
2023/04/13 04:01:36;;;;;;;3.65;1.77;;;18.30;71.50;;;;;;5032880;28;20404;-72
2023/04/13 04:04:02;;;;;;;3.40;2.08;;;18.30;70.50;;;;;;5031970;28;20037;-72
2023/04/13 04:06:28;;;;;;;4.28;2.22;;;18.30;70.50;;;;;;5032794;28;20067;-72
2023/04/13 04:08:53;;;;;;;3.75;2.00;;;18.20;70.50;;;;;;5031730;28;20029;-72
2023/04/13 04:11:21;;;;;;;5.22;2.47;;;18.20;70.70;;;;;;5031907;28;20428;-72
2023/04/13 04:13:46;;;;;;;4.20;2.10;;;18.20;70.70;;;;;;5031726;28;20026;-72
2023/04/13 04:16:12;;;;;;;2.67;1.92;;;18.20;70.70;;;;;;5030956;28;20025;-72
2023/04/13 04:18:38;;;;;;;2.88;1.92;;;18.20;70.80;;;;;;5031551;28;20075;-72
2023/04/13 04:21:05;;;;;;;3.65;2.22;;;18.20;70.90;;;;;;5031728;28;20030;-72
2023/04/13 04:23:33;;;;;;;4.50;2.13;;;18.10;70.80;;;;;;5015299;28;20033;-72
2023/04/13 04:26:01;;;;;;;4.25;2.10;;;18.10;70.90;;;;;;5015459;28;20026;-72
2023/04/13 04:28:29;;;;;;;3.90;1.77;;;18.10;70.90;;;;;;5031602;28;20083;-72
2023/04/13 04:30:55;;;;;;;3.13;2.05;;;18.10;70.90;;;;;;5031341;28;20109;-72
2023/04/13 04:33:24;;;;;;;3.85;1.80;;;18.10;71.00;;;;;;5032585;28;20100;-72
2023/04/13 04:35:50;;;;;;;2.88;1.88;;;18.10;71.10;;;;;;5015299;28;20021;-72
2023/04/13 04:38:16;;;;;;;4.95;1.92;;;18.00;71.10;;;;;;5031561;28;20025;-72
2023/04/13 04:40:44;;;;;;;2.65;1.83;;;18.10;71.10;;;;;;5031077;28;20104;-72
2023/04/13 04:43:12;;;;;;;2.42;2.00;;;18.00;71.20;;;;;;5032510;28;20026;-72
2023/04/13 04:45:40;;;;;;;3.28;1.95;;;18.00;71.30;;;;;;5031150;28;20095;-72
2023/04/13 04:48:06;;;;;;;6.90;1.90;;;18.00;71.40;;;;;;5031296;28;20490;-72
2023/04/13 04:50:32;;;;;;;3.13;2.05;;;18.00;71.40;;;;;;4998239;28;20028;-72
2023/04/13 04:52:58;;;;;;;3.13;2.03;;;18.00;71.60;;;;;;5031307;28;20038;-72
2023/04/13 04:55:23;;;;;;;4.75;1.80;;;18.00;71.70;;;;;;5030944;28;20045;-72
2023/04/13 04:57:49;;;;;;;4.55;1.83;;;18.00;71.70;;;;;;5032236;28;20093;-72
2023/04/13 05:00:15;;;;;;;2.92;1.80;;;17.90;71.70;;;;;;5030825;28;20103;-72
2023/04/13 05:02:41;;;;;;;3.17;1.92;;;17.90;71.70;;;;;;5030994;28;20021;-72
2023/04/13 05:05:08;;;;;;;4.47;2.00;;;17.90;71.80;;;;;;5031132;28;20030;-72
2023/04/13 05:07:33;;;;;;;6.07;1.90;;;17.90;71.90;;;;;;5032224;28;20017;-72
2023/04/13 05:09:59;;;;;;;4.72;1.70;;;17.90;71.80;;;;;;5032218;28;20021;-72
2023/04/13 05:12:25;;;;;;;4.20;1.90;;;17.90;71.90;;;;;;5014364;28;20514;-72
2023/04/13 05:14:50;;;;;;;2.55;1.65;;;17.90;72.00;;;;;;5014376;28;20029;-72
2023/04/13 05:17:19;;;;;;;4.13;2.00;;;17.90;71.90;;;;;;5032110;28;20434;-72
2023/04/13 05:19:46;;;;;;;3.88;2.28;;;17.80;72.00;;;;;;5030707;28;20030;-72
2023/04/13 05:22:12;;;;;;;3.95;2.25;;;17.80;72.00;;;;;;5014680;28;20546;-72
2023/04/13 05:24:38;;;;;;;4.63;2.00;;;17.80;72.10;;;;;;5030685;28;20029;-72
2023/04/13 05:27:04;;;;;;;2.53;1.73;;;17.80;72.00;;;;;;5031557;28;20079;-72
2023/04/13 05:29:32;;;;;;;3.70;1.55;;;17.80;72.20;;;;;;5035917;28;20064;-72
2023/04/13 05:32:01;;;;;;;3.40;1.67;;;17.70;72.10;;;;;;5034593;28;20080;-72
2023/04/13 05:34:27;;;;;;;2.67;1.85;;;17.70;72.10;;;;;;5034608;28;20036;-72
2023/04/13 05:36:52;;;;;;;2.83;1.98;;;17.70;72.10;;;;;;5035792;28;20022;-72
2023/04/13 05:39:19;;;;;;;4.45;1.77;;;17.70;72.20;;;;;;5034529;28;20048;-72
2023/04/13 05:41:45;;;;;;;2.30;1.67;;;17.70;72.20;;;;;;5035595;28;20025;-72
2023/04/13 05:44:10;;;;;;;3.75;1.58;;;17.70;72.20;;;;;;5034312;28;20026;-72
2023/04/13 05:46:36;;;;;;;2.70;1.70;;;17.70;72.20;;;;;;5035382;28;20040;-72
2023/04/13 05:49:02;;;;;;;3.88;2.05;;;17.70;72.20;;;;;;5034414;28;20080;-72
2023/04/13 05:51:29;;;;;;;3.58;1.55;;;17.70;72.40;;;;;;5034456;28;20148;-72
2023/04/13 05:53:55;;;;;;;2.47;1.90;;;17.70;72.40;;;;;;5034094;28;20045;-71
2023/04/13 05:56:22;;;;;;;3.17;1.58;;;17.70;72.40;;;;;;5034294;28;20401;-71
2023/04/13 05:58:48;;;;;;;2.80;1.70;;;17.70;73.50;;;;;;5033745;28;20087;-71
2023/04/13 06:01:14;;;;;;;3.42;2.05;;;17.60;72.50;;;;;;5034235;28;20021;-71
2023/04/13 06:03:40;;;;;;;3.92;2.08;;;17.60;72.50;;;;;;5036050;28;20047;-72
2023/04/13 06:06:05;;;;;;;2.45;1.13;;;17.60;72.60;;;;;;5034438;28;20063;-71
2023/04/13 06:08:31;;;;;;;4.15;1.42;;;17.60;71.40;;;;;;5035940;28;20033;-71
2023/04/13 06:11:00;;;;;;;1.50;1.23;;;17.60;70.50;;;;;;5034553;28;20026;-70
2023/04/13 06:13:26;;;;;;;2.72;1.15;;;17.50;70.20;;;;;;5018122;28;20040;-71
2023/04/13 06:15:52;;;;;;;4.22;1.40;;;17.50;70.20;;;;;;5035622;28;20108;-72
2023/04/13 06:18:18;;;;;;;2.30;1.42;;;17.40;70.10;;;;;;5034482;28;20026;-71
2023/04/13 06:20:45;;;;;;;2.33;1.05;;;17.40;69.80;;;;;;5034285;28;20538;-71
2023/04/13 06:23:10;;;;;;;1.88;1.20;;;17.50;70.00;;;;;;5034207;28;20036;-71
2023/04/13 06:25:37;;;;;;;3.33;1.63;;;17.40;70.00;;;;;;5035363;28;20029;-71
2023/04/13 06:28:03;;;;;;;1.85;1.10;;;17.40;70.30;;;;;;5017657;28;20021;-71
2023/04/13 06:30:29;;;;;;;2.78;1.20;;;17.30;70.20;;;;;;5035457;28;20534;-71
2023/04/13 06:32:54;;;;;;;9.85;1.67;;;17.40;70.20;;;;;;5034823;28;20075;-71
2023/04/13 06:35:20;;;;;;;6.43;1.90;;;17.40;70.20;;;;;;5033602;28;20021;-71
2023/04/13 06:37:46;;;;;;;6.38;1.48;;;17.40;70.30;;;;;;5016209;28;20492;-71
2023/04/13 06:40:15;;;;;;;3.60;1.45;;;17.40;70.30;;;;;;5033717;28;20108;-71
2023/04/13 06:42:41;;;;;;;3.90;1.70;;;17.30;70.20;;;;;;5033203;28;20087;-71
2023/04/13 06:45:10;;;;;;;4.05;1.75;;;17.30;70.30;;;;;;5033430;28;20025;-71
2023/04/13 06:47:38;;;;;;;4.07;1.40;;;17.30;70.30;;;;;;5015712;28;20419;-71
2023/04/13 06:50:05;;;;;;;3.72;1.48;;;17.30;70.40;;;;;;5032136;28;20534;-71
2023/04/13 06:52:34;;;;;;;4.80;1.40;;;17.30;70.40;;;;;;5031935;28;20112;-71
2023/04/13 06:55:01;;;;;;;3.17;1.45;;;17.30;70.50;;;;;;5032430;28;20132;-71
2023/04/13 06:57:27;;;;;;;4.95;1.30;;;17.30;70.50;;;;;;5032867;28;20036;-71
2023/04/13 06:59:52;;;;;;;5.13;1.75;;;17.20;70.40;;;;;;5013151;28;20452;-71
2023/04/13 07:02:18;;;;;;;5.03;1.88;;;17.20;70.40;;;;;;5014529;28;20018;-71
2023/04/13 07:04:44;;;;;;;4.75;1.52;;;17.20;70.40;;;;;;5013370;28;20022;-71
2023/04/13 07:07:10;;;;;;;3.80;1.60;;;17.20;70.40;;;;;;5017298;28;20104;-71
2023/04/13 07:09:36;;;;;;;3.65;1.38;;;17.20;70.40;;;;;;5032914;28;20029;-71
2023/04/13 07:12:06;;;;;;;4.55;1.85;;;17.20;70.40;;;;;;5033897;28;20408;-71
2023/04/13 07:14:33;;;;;;;3.63;1.58;;;17.20;70.40;;;;;;5032974;28;20079;-71
2023/04/13 07:16:59;;;;;;;3.50;1.60;;;17.10;70.40;;;;;;5032972;28;20057;-71
2023/04/13 07:19:26;;;;;;;3.97;1.13;;;17.10;70.40;;;;;;5032621;28;20111;-71
2023/04/13 07:21:51;;;;;;;4.97;1.52;;;17.10;70.40;;;;;;5032623;28;20032;-71
2023/04/13 07:24:17;;;;;;;3.00;1.55;;;17.10;70.30;;;;;;5032735;28;20029;-71
2023/04/13 07:26:43;;;;;;;3.83;1.13;;;17.10;70.30;;;;;;5016094;28;20044;-71
2023/04/13 07:29:12;;;;;;;3.40;1.10;;;17.10;70.30;;;;;;5032556;28;20068;-71
2023/04/13 07:31:38;;;;;;;4.47;1.40;;;17.10;70.20;;;;;;5033792;28;20017;-71
2023/04/13 07:34:04;;;;;;;4.22;1.20;;;17.10;70.20;;;;;;5032379;28;20022;-71
2023/04/13 07:36:30;;;;;;;4.93;1.27;;;17.00;70.20;;;;;;5016056;28;20056;-71
2023/04/13 07:38:56;;;;;;;5.50;1.48;;;17.00;70.10;;;;;;5015758;28;20072;-71
2023/04/13 07:41:23;;;;;;;3.13;1.15;;;17.00;70.10;;;;;;5033421;28;20487;-71
2023/04/13 07:43:49;;;;;;;3.33;1.38;;;17.00;70.00;;;;;;5032395;28;20014;-71
2023/04/13 07:46:14;;;;;;;2.47;1.15;;;17.00;70.00;;;;;;5033514;28;20028;-71
2023/04/13 07:48:40;;;;;;;3.30;1.30;;;17.00;70.00;;;;;;5015793;28;20049;-71
2023/04/13 07:51:08;;;;;;;3.05;1.10;;;16.90;69.90;;;;;;5015004;28;20033;-71
2023/04/13 07:53:34;;;;;;;2.25;1.30;;;17.00;69.90;;;;;;5031795;28;20034;-71
2023/04/13 07:55:59;;;;;;;2.80;1.02;;;16.90;69.90;;;;;;5032002;28;20032;-71
2023/04/13 07:58:26;;;;;;;3.03;1.17;;;17.00;69.80;;;;;;5033239;28;20492;-71
2023/04/13 08:00:51;;;;;;;3.70;1.08;;;16.90;69.70;;;;;;5032960;28;20492;-71
2023/04/13 08:03:17;;;;;;;5.15;1.30;;;16.90;69.70;;;;;;5031898;28;20018;-71
2023/04/13 08:05:43;;;;;;;3.83;1.55;;;16.90;70.70;;;;;;5031979;28;20029;-71
2023/04/13 08:08:09;;;;;;;3.53;1.10;;;16.90;69.70;;;;;;5032549;28;20029;-71
2023/04/13 08:10:35;;;;;;;3.70;1.27;;;16.90;69.70;;;;;;5031853;28;20025;-71
2023/04/13 08:13:00;;;;;;;3.47;1.15;;;16.80;69.60;;;;;;5032729;28;20044;-71
2023/04/13 08:15:26;;;;;;;3.55;1.15;;;16.80;69.60;;;;;;5031699;28;20033;-71
2023/04/13 08:17:52;;;;;;;5.97;1.63;;;16.80;69.60;;;;;;5032790;28;20023;-71
2023/04/13 08:20:17;;;;;;;3.45;1.40;;;16.80;69.60;;;;;;5032894;28;20025;-71
2023/04/13 08:22:44;;;;;;;2.65;1.02;;;16.80;69.60;;;;;;5031438;28;20087;-71
2023/04/13 08:25:10;;;;;;;3.60;1.30;;;16.80;69.50;;;;;;5031438;28;20096;-71
2023/04/13 08:27:36;;;;;;;2.78;1.30;;;16.80;69.50;;;;;;5032774;28;20029;-71
2023/04/13 08:30:02;;;;;;;2.15;0.88;;;16.80;69.60;;;;;;5031534;28;20033;-71
2023/04/13 08:32:28;;;;;;;1.38;0.85;;;16.80;70.60;;;;;;5031313;28;20376;-71
2023/04/13 08:34:54;;;;;;;2.88;0.98;;;16.80;69.60;;;;;;5031428;28;20511;-71
2023/04/13 08:37:20;;;;;;;1.75;1.08;;;16.80;69.60;;;;;;5031062;28;20361;-71
2023/04/13 08:39:47;;;;;;;1.88;1.00;;;16.70;70.50;;;;;;5031289;28;20056;-71
2023/04/13 08:42:13;;;;;;;1.92;0.88;;;16.70;69.50;;;;;;5032444;28;20021;-71
2023/04/13 08:44:39;;;;;;;2.03;1.02;;;16.70;69.60;;;;;;5032499;28;20017;-71
2023/04/13 08:47:05;;;;;;;2.30;0.93;;;16.70;69.60;;;;;;5031276;28;20148;-72
2023/04/13 08:49:31;;;;;;;2.70;0.90;;;16.70;69.70;;;;;;5032547;28;20071;-72
2023/04/13 08:51:58;;;;;;;1.08;0.98;;;16.70;69.60;;;;;;5032089;28;20033;-72
2023/04/13 08:54:25;;;;;;;1.23;0.80;;;16.70;69.50;;;;;;5014849;28;20123;-71
2023/04/13 08:56:50;;;;;;;3.15;0.88;;;16.70;69.50;;;;;;5031263;28;20076;-71
2023/04/13 08:59:16;;;;;;;2.88;0.77;;;16.60;69.50;;;;;;5030698;28;20134;-71
2023/04/13 09:01:47;;;;;;;2.30;1.20;;;16.60;69.50;;;;;;5034477;28;20101;-71
2023/04/13 09:04:16;;;;;;;1.80;0.80;;;16.60;69.50;;;;;;5037646;28;20017;-71
2023/04/13 09:06:41;;;;;;;1.70;0.88;;;16.60;69.50;;;;;;5037609;28;20447;-71
2023/04/13 09:09:14;;;;;;;1.20;0.70;;;16.60;69.50;;;;;;5038540;28;20046;-71
2023/04/13 09:11:41;;;;;;;2.47;0.75;;;16.60;69.40;;;;;;5021646;28;20039;-71
2023/04/13 09:14:07;;;;;;;2.15;0.73;;;16.60;69.40;;;;;;5021152;28;20033;-71
2023/04/13 09:16:40;;;;;;;1.13;0.88;;;16.60;69.40;;;;;;5037510;28;20040;-71
2023/04/13 09:19:07;;;;;;;1.00;0.68;;;16.60;69.30;;;;;;5037379;28;20018;-71
2023/04/13 09:21:51;;;;;;;2.03;0.90;;;16.60;69.30;;;;;;5037560;28;20063;-71
2023/04/13 09:24:17;;;;;;;1.27;0.63;;;16.50;69.40;;;;;;5037451;28;20055;-71
2023/04/13 09:26:44;;;;;;;1.98;0.95;;;16.50;69.30;;;;;;5037410;28;20029;-71
2023/04/13 09:29:12;;;;;;;1.13;0.50;;;16.50;69.30;;;;;;5037310;28;20034;-71
2023/04/13 09:31:38;;;;;;;2.20;0.70;;;16.50;69.30;;;;;;5021329;28;20025;-71
2023/04/13 09:34:05;;;;;;;1.20;0.50;;;16.50;69.30;;;;;;5037151;28;20083;-71
2023/04/13 09:36:31;;;;;;;1.17;0.70;;;16.50;69.40;;;;;;5037169;28;20476;-71
2023/04/13 09:38:57;;;;;;;3.30;0.90;;;16.50;69.30;;;;;;5037601;28;20538;-71
2023/04/13 09:41:35;;;;;;;2.03;0.90;;;16.50;69.40;;;;;;5020930;28;20029;-71
2023/04/13 09:44:02;;;;;;;1.77;0.70;;;16.50;69.40;;;;;;5038347;28;20051;-71
2023/04/13 09:46:28;;;;;;;0.70;0.40;;;16.50;69.40;;;;;;5037233;28;20479;-71
2023/04/13 09:49:06;;;;;;;1.00;0.43;;;16.50;69.40;;;;;;5004433;28;20025;-71
2023/04/13 09:51:38;;;;;;;1.25;0.60;;;16.40;69.40;;;;;;5021998;28;20022;-71
2023/04/13 09:54:07;;;;;;;1.30;0.80;;;16.40;69.40;;;;;;5038296;28;20578;-71
2023/04/13 09:56:53;;;;;;;0.68;0.50;;;16.40;69.40;;;;;;5037327;28;20100;-71
2023/04/13 09:59:20;;;;;;;0.95;0.60;;;16.40;69.50;;;;;;5003077;28;20483;-71
2023/04/13 10:01:46;;;;;;;1.98;0.70;;;16.40;69.50;;;;;;5034109;28;20500;-71
2023/04/13 10:04:11;;;;;;;0.80;0.50;;;16.40;69.40;;;;;;5018298;28;20037;-71
2023/04/13 10:06:41;;;;;;;2.00;0.80;;;16.40;69.40;;;;;;5033807;28;20022;-71
2023/04/13 10:09:08;;;;;;;0.47;0.45;;;16.40;69.50;;;;;;5049347;28;20045;-71
2023/04/13 10:11:39;;;;;;;0.93;0.60;;;16.40;69.40;;;;;;5033859;28;20046;-71
2023/04/13 10:14:08;;;;;;;0.57;0.57;;;16.30;69.40;;;;;;5013773;28;20100;-71
2023/04/13 10:16:52;;;;;;;1.00;0.50;;;16.30;69.40;;;;;;5014067;28;20026;-71
2023/04/13 10:19:23;;;;;;;1.00;0.57;;;16.30;69.40;;;;;;5030183;28;20030;-71
2023/04/13 10:21:50;;;;;;;1.00;0.55;;;16.30;69.40;;;;;;5030545;28;20048;-71
2023/04/13 10:24:16;;;;;;;1.13;0.68;;;16.30;69.50;;;;;;4997617;28;20117;-71
2023/04/13 10:26:43;;;;;;;1.77;0.70;;;16.30;69.40;;;;;;5013993;28;20133;-71
2023/04/13 10:29:12;;;;;;;1.27;0.60;;;16.30;69.40;;;;;;5014874;28;20480;-71
2023/04/13 10:31:45;;;;;;;1.23;0.70;;;16.30;69.40;;;;;;5030247;28;20022;-71
2023/04/13 10:34:24;;;;;;;2.25;0.73;;;16.20;69.40;;;;;;5030031;28;20101;-71
2023/04/13 10:36:53;;;;;;;0.75;0.30;;;16.30;69.40;;;;;;5013864;28;20022;-72
2023/04/13 10:39:34;;;;;;;1.38;0.50;;;16.30;69.50;;;;;;5029697;28;20026;-72
2023/04/13 10:42:05;;;;;;;0.93;0.60;;;16.20;69.50;;;;;;5013749;28;20507;-72
2023/04/13 10:44:50;;;;;;;1.13;0.60;;;16.20;69.50;;;;;;5030056;28;20109;-72
2023/04/13 10:47:17;;;;;;;0.60;0.50;;;16.20;69.50;;;;;;4997040;28;20076;-72
2023/04/13 10:49:44;;;;;;;1.83;0.73;;;16.20;69.50;;;;;;5029918;28;20438;-71
2023/04/13 10:52:10;;;;;;;0.47;0.40;;;16.20;69.50;;;;;;5013543;28;20057;-71
2023/04/13 10:54:36;;;;;;;1.55;0.43;;;16.20;69.50;;;;;;5013228;28;20130;-71
2023/04/13 10:57:03;;;;;;;0.40;0.32;;;16.20;69.60;;;;;;5029931;28;20029;-72
2023/04/13 10:59:55;;;;;;;0.52;0.40;;;16.20;69.70;;;;;;5012988;28;20037;-72
2023/04/13 11:02:23;;;;;;;0.93;0.47;;;16.20;69.60;;;;;;5014941;28;20121;-72
2023/04/13 11:04:49;;;;;;;0.82;0.50;;;16.20;69.60;;;;;;5013350;28;20519;-72
2023/04/13 11:07:16;;;;;;;1.02;0.50;;;16.20;69.70;;;;;;5032787;28;20052;-72
2023/04/13 11:09:46;;;;;;;0.88;0.52;;;16.20;69.70;;;;;;5033075;28;20160;-72
2023/04/13 11:12:13;;;;;;;1.10;0.50;;;16.10;69.70;;;;;;5032942;28;20021;-72
2023/04/13 11:14:38;;;;;;;1.20;0.40;;;16.20;69.80;;;;;;5032964;28;20083;-72
2023/04/13 11:17:05;;;;;;;0.70;0.40;;;16.10;69.80;;;;;;5033899;28;20100;-72
2023/04/13 11:19:31;;;;;;;1.27;0.40;;;16.10;69.80;;;;;;5032685;28;20029;-71
2023/04/13 11:21:58;;;;;;;0.55;0.30;;;16.10;69.90;;;;;;5034085;28;20502;-71
2023/04/13 11:24:32;;;;;;;0.60;0.30;;;16.10;69.90;;;;;;5032790;28;20021;-71
2023/04/13 11:26:58;;;;;;;0.38;0.38;;;16.10;69.80;;;;;;5032733;28;20032;-71
2023/04/13 11:29:24;;;;;;;0.80;0.52;;;16.10;70.00;;;;;;5033553;28;20042;-71
2023/04/13 11:31:50;;;;;;;1.13;0.50;;;16.10;69.90;;;;;;5033664;28;20479;-72
2023/04/13 11:34:24;;;;;;;1.02;0.40;;;16.10;70.00;;;;;;5033778;28;20056;-72
2023/04/13 11:37:10;;;;;;;0.68;0.30;;;16.10;70.00;;;;;;5032461;28;20045;-72
2023/04/13 11:39:37;;;;;;;0.30;0.30;;;16.10;70.00;;;;;;5033432;28;20044;-72
2023/04/13 11:42:06;;;;;;;0.40;0.40;;;16.10;70.10;;;;;;5016222;28;20438;-72
2023/04/13 11:44:35;;;;;;;0.22;0.22;;;16.10;70.10;;;;;;5032173;28;20100;-72
2023/04/13 11:47:02;;;;;;;0.88;0.40;;;16.10;70.10;;;;;;5032187;28;20088;-71
2023/04/13 11:49:27;;;;;;;0.30;0.30;;;16.00;70.00;;;;;;5032075;28;20032;-71
2023/04/13 11:51:53;;;;;;;0.50;0.40;;;16.00;70.00;;;;;;5033535;28;20021;-71
2023/04/13 11:54:19;;;;;;;0.40;0.30;;;16.00;70.10;;;;;;5031900;28;20092;-71
2023/04/13 11:56:46;;;;;;;0.45;0.35;;;16.00;70.10;;;;;;5033243;28;20030;-71
2023/04/13 11:59:12;;;;;;;0.40;0.30;;;16.00;70.10;;;;;;5015863;28;20484;-71
2023/04/13 12:01:38;;;;;;;0.82;0.40;;;16.00;70.10;;;;;;5032010;28;20044;-71
2023/04/13 12:04:03;;;;;;;0.73;0.43;;;16.00;70.10;;;;;;5033061;28;20539;-71
2023/04/13 12:06:31;;;;;;;0.45;0.30;;;16.00;70.10;;;;;;5031909;28;20013;-71
2023/04/13 12:09:00;;;;;;;1.35;0.50;;;16.00;70.10;;;;;;5031970;28;20025;-71
2023/04/13 12:11:38;;;;;;;0.38;0.20;;;16.00;70.10;;;;;;5031696;28;20045;-71
2023/04/13 12:14:03;;;;;;;0.50;0.50;;;16.00;70.10;;;;;;5033305;28;20017;-71
2023/04/13 12:16:31;;;;;;;0.60;0.30;;;16.00;70.10;;;;;;5031504;28;20503;-71
2023/04/13 12:18:56;;;;;;;0.40;0.40;;;16.00;70.20;;;;;;5031750;28;20502;-71
2023/04/13 12:21:22;;;;;;;0.63;0.38;;;16.00;70.20;;;;;;5031635;28;20033;-71
2023/04/13 12:23:52;;;;;;;0.30;0.25;;;16.00;70.20;;;;;;5015061;28;20018;-71
2023/04/13 12:26:18;;;;;;;0.57;0.30;;;16.00;70.20;;;;;;5032601;28;20025;-71
2023/04/13 12:28:45;;;;;;;0.40;0.40;;;16.00;70.30;;;;;;5031452;28;20083;-71
2023/04/13 12:31:11;;;;;;;0.47;0.40;;;16.00;70.20;;;;;;5031251;28;20017;-71
2023/04/13 12:33:37;;;;;;;1.05;0.30;;;16.00;70.30;;;;;;5032649;28;20388;-71
2023/04/13 12:36:05;;;;;;;0.50;0.40;;;16.00;70.30;;;;;;5031007;28;20030;-71
2023/04/13 12:38:31;;;;;;;0.80;0.30;;;16.00;70.30;;;;;;5031183;28;20032;-71
2023/04/13 12:40:57;;;;;;;0.40;0.30;;;16.00;70.40;;;;;;5014989;28;20104;-71
2023/04/13 12:43:23;;;;;;;1.38;0.28;;;16.00;70.40;;;;;;5031202;28;20088;-71
2023/04/13 12:45:49;;;;;;;0.85;0.40;;;16.00;70.40;;;;;;5031277;28;20018;-71
2023/04/13 12:48:15;;;;;;;0.40;0.30;;;16.00;70.40;;;;;;5015034;28;20075;-71